KSGR/SGR METAR and TAF weather

Enter ICAO airport designator
Station Type Date Time Source
KSGR METAR 2022/01/26 06:53 UTC NOAA

KSGR 260653Z AUTO 05006KT 10SM CLR 10/06 A3020 RMK AO2 SLP228 T01000061


Station Type Date Time Source
KSGR Decoded METAR 2022/01/26 06:53 UTC NOAA

SUGARLAND REGIONAL AIRPORT, TX, United States (KSGR) 29-37N 095-39W
Jan 26, 2022 - 01:53 AM EST / 2022.01.26 0653 UTC
Wind: from the NE (050 degrees) at 7 MPH (6 KT):0
Visibility: 10 mile(s):0
Sky conditions: clear
Temperature: 50.0 F (10.0 C)
Dew Point: 43.0 F (6.1 C)
Relative Humidity: 76%
Pressure (altimeter): 30.2 in. Hg (1022 hPa)
ob: KSGR 260653Z AUTO 05006KT 10SM CLR 10/06 A3020 RMK AO2 SLP228 T01000061
cycle: 7

Station Type Date Time Source
KSGR TAF 2022/01/26 06:48 UTC NOAA

TAF KSGR 260545Z 2606/2706 05010KT P6SM FEW025
TEMPO 2606/2609 5SM BR
FM261400 04008KT P6SM FEW015 FEW250
FM270300 VRB05KT P6SM FEW250

Example: see airport list